sensor_id;sensor_type;location;lat;lon;timestamp;pressure;altitude;pressure_sealevel;temperature;humidity
63881;BME280;50046;46.672;11.152;2022-08-03T00:00:07;98318.97;;;21.19;63.35
63881;BME280;50046;46.672;11.152;2022-08-03T00:00:17;98322.50;;;21.20;63.54
63881;BME280;50046;46.672;11.152;2022-08-03T00:00:28;98314.59;;;21.18;63.53
63881;BME280;50046;46.672;11.152;2022-08-03T00:00:39;98321.72;;;21.19;63.93
63881;BME280;50046;46.672;11.152;2022-08-03T00:00:49;98316.53;;;21.18;64.02
63881;BME280;50046;46.672;11.152;2022-08-03T00:01:00;98323.63;;;21.19;63.60
63881;BME280;50046;46.672;11.152;2022-08-03T00:01:15;98318.97;;;21.19;63.52
63881;BME280;50046;46.672;11.152;2022-08-03T00:01:25;98318.97;;;21.19;63.62
63881;BME280;50046;46.672;11.152;2022-08-03T00:01:38;98318.97;;;21.19;63.18
63881;BME280;50046;46.672;11.152;2022-08-03T00:01:49;98328.47;;;21.22;63.13
63881;BME280;50046;46.672;11.152;2022-08-03T00:01:59;98325.75;;;21.22;63.23
63881;BME280;50046;46.672;11.152;2022-08-03T00:02:11;98321.34;;;21.21;63.78
63881;BME280;50046;46.672;11.152;2022-08-03T00:02:21;98319.75;;;21.20;63.60
63881;BME280;50046;46.672;11.152;2022-08-03T00:02:32;98321.72;;;21.19;63.73
63881;BME280;50046;46.672;11.152;2022-08-03T00:02:42;98323.63;;;21.19;63.95
63881;BME280;50046;46.672;11.152;2022-08-03T00:02:52;98320.56;;;21.20;63.57
63881;BME280;50046;46.672;11.152;2022-08-03T00:03:03;98318.47;;;21.17;63.82
63881;BME280;50046;46.672;11.152;2022-08-03T00:03:13;98320.25;;;21.13;63.72
63881;BME280;50046;46.672;11.152;2022-08-03T00:03:24;98321.03;;;21.14;64.27
63881;BME280;50046;46.672;11.152;2022-08-03T00:03:34;98326.53;;;21.14;64.27
63881;BME280;50046;46.672;11.152;2022-08-03T00:03:45;98314.44;;;21.15;64.23
63881;BME280;50046;46.672;11.152;2022-08-03T00:03:55;98320.41;;;21.17;64.38
63881;BME280;50046;46.672;11.152;2022-08-03T00:04:07;98316.53;;;21.18;64.14
63881;BME280;50046;46.672;11.152;2022-08-03T00:04:17;98318.97;;;21.19;63.81
63881;BME280;50046;46.672;11.152;2022-08-03T00:04:28;98317.81;;;21.20;63.79
63881;BME280;50046;46.672;11.152;2022-08-03T00:04:38;98321.34;;;21.21;64.24
63881;BME280;50046;46.672;11.152;2022-08-03T00:04:49;98320.88;;;21.19;64.39
63881;BME280;50046;46.672;11.152;2022-08-03T00:04:59;98318.47;;;21.17;64.30
63881;BME280;50046;46.672;11.152;2022-08-03T00:05:09;98323.47;;;21.15;64.11
63881;BME280;50046;46.672;11.152;2022-08-03T00:05:20;98326.53;;;21.14;64.23
63881;BME280;50046;46.672;11.152;2022-08-03T00:05:30;98320.91;;;21.10;64.15
63881;BME280;50046;46.672;11.152;2022-08-03T00:05:42;98323.97;;;21.09;64.02
63881;BME280;50046;46.672;11.152;2022-08-03T00:05:53;98322.03;;;21.09;64.48
63881;BME280;50046;46.672;11.152;2022-08-03T00:06:03;98316.88;;;21.08;64.29
63881;BME280;50046;46.672;11.152;2022-08-03T00:06:13;98321.22;;;21.09;64.63
63881;BME280;50046;46.672;11.152;2022-08-03T00:06:24;98322.84;;;21.10;64.31
63881;BME280;50046;46.672;11.152;2022-08-03T00:06:35;98319.28;;;21.09;64.59
63881;BME280;50046;46.672;11.152;2022-08-03T00:06:45;98314.13;;;21.08;64.85
63881;BME280;50046;46.672;11.152;2022-08-03T00:06:56;98318.94;;;21.11;64.91
63881;BME280;50046;46.672;11.152;2022-08-03T00:07:06;98320.59;;;21.12;64.63
63881;BME280;50046;46.672;11.152;2022-08-03T00:07:17;98317.84;;;21.12;64.88
63881;BME280;50046;46.672;11.152;2022-08-03T00:07:28;98319.75;;;21.11;64.90
63881;BME280;50046;46.672;11.152;2022-08-03T00:07:38;98318.63;;;21.12;64.59
63881;BME280;50046;46.672;11.152;2022-08-03T00:07:50;98321.38;;;21.12;64.84
63881;BME280;50046;46.672;11.152;2022-08-03T00:08:00;98319.75;;;21.11;64.55
63881;BME280;50046;46.672;11.152;2022-08-03T00:08:11;98321.22;;;21.09;64.62
63881;BME280;50046;46.672;11.152;2022-08-03T00:08:21;98318.00;;;21.06;64.76
63881;BME280;50046;46.672;11.152;2022-08-03T00:08:31;98322.34;;;21.08;65.05
63881;BME280;50046;46.672;11.152;2022-08-03T00:08:42;98321.56;;;21.07;65.12
63881;BME280;50046;46.672;11.152;2022-08-03T00:08:52;98317.53;;;21.04;65.10
63881;BME280;50046;46.672;11.152;2022-08-03T00:09:06;98325.41;;;21.06;65.23
63881;BME280;50046;46.672;11.152;2022-08-03T00:09:16;98320.41;;;21.08;65.28
63881;BME280;50046;46.672;11.152;2022-08-03T00:09:27;98322.03;;;21.09;65.40
63881;BME280;50046;46.672;11.152;2022-08-03T00:09:37;98319.28;;;21.09;65.05
63881;BME280;50046;46.672;11.152;2022-08-03T00:09:47;98320.91;;;21.10;65.21
63881;BME280;50046;46.672;11.152;2022-08-03T00:09:58;98320.91;;;21.10;64.88
63881;BME280;50046;46.672;11.152;2022-08-03T00:10:08;98320.91;;;21.10;65.30
63881;BME280;50046;46.672;11.152;2022-08-03T00:10:19;98327.03;;;21.07;65.56
63881;BME280;50046;46.672;11.152;2022-08-03T00:10:30;98325.09;;;21.08;65.47
63881;BME280;50046;46.672;11.152;2022-08-03T00:10:40;98322.34;;;21.08;65.13
63881;BME280;50046;46.672;11.152;2022-08-03T00:10:51;98321.88;;;21.05;65.23
63881;BME280;50046;46.672;11.152;2022-08-03T00:11:02;98321.38;;;21.03;65.32
63881;BME280;50046;46.672;11.152;2022-08-03T00:11:12;98320.44;;;20.99;65.38
63881;BME280;50046;46.672;11.152;2022-08-03T00:11:22;98319.28;;;21.00;65.58
63881;BME280;50046;46.672;11.152;2022-08-03T00:11:33;98316.22;;;21.02;65.43
63881;BME280;50046;46.672;11.152;2022-08-03T00:11:44;98315.44;;;21.01;65.57
63881;BME280;50046;46.672;11.152;2022-08-03T00:11:54;98322.84;;;21.01;65.44
63881;BME280;50046;46.672;11.152;2022-08-03T00:12:05;98323.66;;;21.01;65.42
63881;BME280;50046;46.672;11.152;2022-08-03T00:12:15;98321.72;;;21.02;65.08
63881;BME280;50046;46.672;11.152;2022-08-03T00:12:26;98321.72;;;21.02;65.44
63881;BME280;50046;46.672;11.152;2022-08-03T00:12:36;98323.00;;;21.04;65.25
63881;BME280;50046;46.672;11.152;2022-08-03T00:12:46;98319.13;;;21.05;65.00
63881;BME280;50046;46.672;11.152;2022-08-03T00:12:57;98321.06;;;21.05;64.80
63881;BME280;50046;46.672;11.152;2022-08-03T00:13:07;98315.88;;;21.03;65.32
63881;BME280;50046;46.672;11.152;2022-08-03T00:13:18;98324.13;;;21.03;64.89
63881;BME280;50046;46.672;11.152;2022-08-03T00:13:29;98320.56;;;21.03;65.10
63881;BME280;50046;46.672;11.152;2022-08-03T00:13:39;98318.97;;;21.02;64.96
63881;BME280;50046;46.672;11.152;2022-08-03T00:13:50;98322.03;;;21.00;64.65
63881;BME280;50046;46.672;11.152;2022-08-03T00:14:00;98321.22;;;21.00;65.00
63881;BME280;50046;46.672;11.152;2022-08-03T00:14:11;98325.13;;;20.99;65.15
63881;BME280;50046;46.672;11.152;2022-08-03T00:14:21;98318.81;;;20.98;65.02
63881;BME280;50046;46.672;11.152;2022-08-03T00:14:31;98318.81;;;20.98;65.62
63881;BME280;50046;46.672;11.152;2022-08-03T00:14:42;98316.53;;;21.00;65.67
63881;BME280;50046;46.672;11.152;2022-08-03T00:14:52;98320.44;;;20.99;65.79
63881;BME280;50046;46.672;11.152;2022-08-03T00:15:03;98321.22;;;21.00;65.72
63881;BME280;50046;46.672;11.152;2022-08-03T00:15:13;98319.94;;;20.97;65.74
63881;BME280;50046;46.672;11.152;2022-08-03T00:15:24;98319.94;;;20.97;65.50
63881;BME280;50046;46.672;11.152;2022-08-03T00:15:34;98318.34;;;20.96;66.02
63881;BME280;50046;46.672;11.152;2022-08-03T00:15:45;98319.47;;;20.95;66.11
63881;BME280;50046;46.672;11.152;2022-08-03T00:15:55;98328.00;;;20.94;65.65
63881;BME280;50046;46.672;11.152;2022-08-03T00:16:06;98323.34;;;20.94;66.18
63881;BME280;50046;46.672;11.152;2022-08-03T00:16:16;98328.50;;;20.96;65.91
63881;BME280;50046;46.672;11.152;2022-08-03T00:16:27;98317.69;;;20.99;66.08
63881;BME280;50046;46.672;11.152;2022-08-03T00:16:37;98321.22;;;21.00;65.96
63881;BME280;50046;46.672;11.152;2022-08-03T00:16:48;98325.91;;;20.99;66.03
63881;BME280;50046;46.672;11.152;2022-08-03T00:16:58;98320.44;;;20.99;65.71
63881;BME280;50046;46.672;11.152;2022-08-03T00:17:09;98322.69;;;20.97;65.55
63881;BME280;50046;46.672;11.152;2022-08-03T00:17:19;98319.16;;;20.97;65.82
63881;BME280;50046;46.672;11.152;2022-08-03T00:17:30;98321.88;;;20.97;65.58
63881;BME280;50046;46.672;11.152;2022-08-03T00:17:40;98321.22;;;21.00;65.58
63881;BME280;50046;46.672;11.152;2022-08-03T00:17:51;98317.34;;;21.01;65.59
63881;BME280;50046;46.672;11.152;2022-08-03T00:18:02;98323.66;;;21.01;65.44
63881;BME280;50046;46.672;11.152;2022-08-03T00:18:12;98318.97;;;21.02;64.93
63881;BME280;50046;46.672;11.152;2022-08-03T00:18:23;98318.97;;;21.02;65.13
63881;BME280;50046;46.672;11.152;2022-08-03T00:18:33;98322.22;;;21.04;65.15
63881;BME280;50046;46.672;11.152;2022-08-03T00:18:44;98322.84;;;21.01;65.08
63881;BME280;50046;46.672;11.152;2022-08-03T00:18:54;98320.44;;;20.99;65.00
63881;BME280;50046;46.672;11.152;2022-08-03T00:19:04;98318.19;;;21.01;65.12
63881;BME280;50046;46.672;11.152;2022-08-03T00:19:15;98320.91;;;21.01;64.50
63881;BME280;50046;46.672;11.152;2022-08-03T00:19:25;98326.41;;;21.01;64.37
63881;BME280;50046;46.672;11.152;2022-08-03T00:19:37;98317.34;;;21.01;64.48
63881;BME280;50046;46.672;11.152;2022-08-03T00:19:47;98320.09;;;21.01;63.87
63881;BME280;50046;46.672;11.152;2022-08-03T00:19:57;98323.19;;;20.99;64.32
63881;BME280;50046;46.672;11.152;2022-08-03T00:20:08;98323.97;;;21.00;63.89
63881;BME280;50046;46.672;11.152;2022-08-03T00:20:20;98328.00;;;21.02;64.20
63881;BME280;50046;46.672;11.152;2022-08-03T00:20:30;98324.47;;;21.02;64.04
63881;BME280;50046;46.672;11.152;2022-08-03T00:20:41;98323.66;;;21.01;63.95
63881;BME280;50046;46.672;11.152;2022-08-03T00:20:51;98320.44;;;20.99;63.55
63881;BME280;50046;46.672;11.152;2022-08-03T00:21:02;98323.97;;;21.00;63.57
63881;BME280;50046;46.672;11.152;2022-08-03T00:21:13;98322.03;;;21.00;63.58
63881;BME280;50046;46.672;11.152;2022-08-03T00:21:23;98325.91;;;20.99;63.90
63881;BME280;50046;46.672;11.152;2022-08-03T00:21:34;98324.47;;;21.02;63.93
63881;BME280;50046;46.672;11.152;2022-08-03T00:21:44;98328.31;;;21.01;63.77
63881;BME280;50046;46.672;11.152;2022-08-03T00:21:55;98317.34;;;21.01;63.85
63881;BME280;50046;46.672;11.152;2022-08-03T00:22:05;98323.66;;;21.01;64.09
63881;BME280;50046;46.672;11.152;2022-08-03T00:22:15;98324.78;;;21.00;64.18
63881;BME280;50046;46.672;11.152;2022-08-03T00:22:26;98327.53;;;21.00;64.24
63881;BME280;50046;46.672;11.152;2022-08-03T00:22:37;98329.78;;;20.98;64.20
63881;BME280;50046;46.672;11.152;2022-08-03T00:22:48;98323.84;;;20.96;64.43
63881;BME280;50046;46.672;11.152;2022-08-03T00:22:58;98324.16;;;20.95;64.67
63881;BME280;50046;46.672;11.152;2022-08-03T00:23:11;98326.72;;;20.91;64.97
63881;BME280;50046;46.672;11.152;2022-08-03T00:23:22;98323.97;;;20.91;65.04
63881;BME280;50046;46.672;11.152;2022-08-03T00:23:33;98317.69;;;20.91;64.79
63881;BME280;50046;46.672;11.152;2022-08-03T00:23:43;98324.47;;;20.93;64.99
63881;BME280;50046;46.672;11.152;2022-08-03T00:23:54;98323.66;;;20.93;64.63
63881;BME280;50046;46.672;11.152;2022-08-03T00:24:04;98325.25;;;20.94;64.38
63881;BME280;50046;46.672;11.152;2022-08-03T00:24:15;98321.72;;;20.93;64.64
63881;BME280;50046;46.672;11.152;2022-08-03T00:24:25;98327.19;;;20.93;64.49
63881;BME280;50046;46.672;11.152;2022-08-03T00:24:35;98322.50;;;20.94;64.65
63881;BME280;50046;46.672;11.152;2022-08-03T00:24:46;98316.72;;;20.95;64.16
63881;BME280;50046;46.672;11.152;2022-08-03T00:24:56;98328.19;;;20.97;64.18
63881;BME280;50046;46.672;11.152;2022-08-03T00:25:07;98326.25;;;20.98;64.33
63881;BME280;50046;46.672;11.152;2022-08-03T00:25:17;98319.94;;;20.97;64.49
63881;BME280;50046;46.672;11.152;2022-08-03T00:25:28;98319.16;;;20.97;64.14
63881;BME280;50046;46.672;11.152;2022-08-03T00:25:38;98326.56;;;20.96;63.94
63881;BME280;50046;46.672;11.152;2022-08-03T00:25:49;98320.25;;;20.96;64.06
63881;BME280;50046;46.672;11.152;2022-08-03T00:25:59;98320.25;;;20.96;63.83
63881;BME280;50046;46.672;11.152;2022-08-03T00:26:10;98318.34;;;20.96;63.93
63881;BME280;50046;46.672;11.152;2022-08-03T00:26:20;98323.50;;;20.98;64.05
63881;BME280;50046;46.672;11.152;2022-08-03T00:26:31;98330.94;;;20.97;64.04
63881;BME280;50046;46.672;11.152;2022-08-03T00:26:41;98322.69;;;20.97;64.15
63881;BME280;50046;46.672;11.152;2022-08-03T00:26:52;98326.56;;;20.96;63.83
63881;BME280;50046;46.672;11.152;2022-08-03T00:27:02;98323.50;;;20.98;64.18
63881;BME280;50046;46.672;11.152;2022-08-03T00:27:12;98318.00;;;20.98;64.25
63881;BME280;50046;46.672;11.152;2022-08-03T00:27:23;98330.94;;;20.97;63.94
63881;BME280;50046;46.672;11.152;2022-08-03T00:27:33;98328.19;;;20.97;63.98
63881;BME280;50046;46.672;11.152;2022-08-03T00:27:44;98326.25;;;20.98;63.90
63881;BME280;50046;46.672;11.152;2022-08-03T00:27:54;98323.50;;;20.98;64.24
63881;BME280;50046;46.672;11.152;2022-08-03T00:28:05;98326.25;;;20.98;64.18
63881;BME280;50046;46.672;11.152;2022-08-03T00:28:15;98324.63;;;20.97;64.40
63881;BME280;50046;46.672;11.152;2022-08-03T00:28:26;98325.75;;;20.96;64.34
63881;BME280;50046;46.672;11.152;2022-08-03T00:28:36;98326.56;;;20.96;64.21
63881;BME280;50046;46.672;11.152;2022-08-03T00:28:48;98330.44;;;20.95;64.23
63881;BME280;50046;46.672;11.152;2022-08-03T00:28:58;98321.72;;;20.93;64.35
63881;BME280;50046;46.672;11.152;2022-08-03T00:29:11;98320.09;;;20.92;64.37
63881;BME280;50046;46.672;11.152;2022-08-03T00:29:22;98324.47;;;20.93;64.56
63881;BME280;50046;46.672;11.152;2022-08-03T00:29:32;98323.66;;;20.93;64.46
63881;BME280;50046;46.672;11.152;2022-08-03T00:29:43;98325.59;;;20.92;64.86
63881;BME280;50046;46.672;11.152;2022-08-03T00:29:53;98323.34;;;20.94;64.54
63881;BME280;50046;46.672;11.152;2022-08-03T00:30:07;98326.41;;;20.93;64.57
63881;BME280;50046;46.672;11.152;2022-08-03T00:30:17;98329.16;;;20.93;64.26
63881;BME280;50046;46.672;11.152;2022-08-03T00:30:28;98328.00;;;20.94;64.68
63881;BME280;50046;46.672;11.152;2022-08-03T00:30:39;98321.72;;;20.93;64.83
63881;BME280;50046;46.672;11.152;2022-08-03T00:30:49;98322.06;;;20.92;64.94
63881;BME280;50046;46.672;11.152;2022-08-03T00:31:00;98320.09;;;20.92;64.85
63881;BME280;50046;46.672;11.152;2022-08-03T00:31:10;98328.34;;;20.92;64.58
63881;BME280;50046;46.672;11.152;2022-08-03T00:31:20;98329.16;;;20.93;64.38
63881;BME280;50046;46.672;11.152;2022-08-03T00:31:31;98323.97;;;20.91;64.79
63881;BME280;50046;46.672;11.152;2022-08-03T00:31:41;98325.41;;;20.89;64.88
63881;BME280;50046;46.672;11.152;2022-08-03T00:31:52;98327.06;;;20.90;65.01
63881;BME280;50046;46.672;11.152;2022-08-03T00:32:02;98326.25;;;20.89;64.78
63881;BME280;50046;46.672;11.152;2022-08-03T00:32:13;98325.13;;;20.90;65.02
63881;BME280;50046;46.672;11.152;2022-08-03T00:32:23;98330.09;;;20.88;65.51
63881;BME280;50046;46.672;11.152;2022-08-03T00:32:33;98324.13;;;20.86;65.22
63881;BME280;50046;46.672;11.152;2022-08-03T00:32:44;98324.97;;;20.87;65.38
63881;BME280;50046;46.672;11.152;2022-08-03T00:32:54;98330.44;;;20.87;65.80
63881;BME280;50046;46.672;11.152;2022-08-03T00:33:05;98326.88;;;20.86;65.84
63881;BME280;50046;46.672;11.152;2022-08-03T00:33:15;98321.38;;;20.86;65.81
63881;BME280;50046;46.672;11.152;2022-08-03T00:33:26;98321.38;;;20.86;65.54
63881;BME280;50046;46.672;11.152;2022-08-03T00:33:37;98329.31;;;20.88;65.67
63881;BME280;50046;46.672;11.152;2022-08-03T00:33:47;98328.03;;;20.85;65.66
63881;BME280;50046;46.672;11.152;2022-08-03T00:33:57;98330.75;;;20.85;65.85
63881;BME280;50046;46.672;11.152;2022-08-03T00:34:08;98333.50;;;20.85;65.71
63881;BME280;50046;46.672;11.152;2022-08-03T00:34:18;98329.97;;;20.84;65.62
63881;BME280;50046;46.672;11.152;2022-08-03T00:34:29;98325.28;;;20.85;65.72
63881;BME280;50046;46.672;11.152;2022-08-03T00:35:01;98324.28;;;20.81;65.85
63881;BME280;50046;46.672;11.152;2022-08-03T00:35:11;98330.63;;;20.81;65.98
63881;BME280;50046;46.672;11.152;2022-08-03T00:35:22;98328.97;;;20.80;65.71
63881;BME280;50046;46.672;11.152;2022-08-03T00:35:32;98320.75;;;20.80;65.73
63881;BME280;50046;46.672;11.152;2022-08-03T00:35:42;98325.75;;;20.78;65.67
63881;BME280;50046;46.672;11.152;2022-08-03T00:35:53;98327.19;;;20.76;66.00
63881;BME280;50046;46.672;11.152;2022-08-03T00:36:06;98338.03;;;20.72;66.14
63881;BME280;50046;46.672;11.152;2022-08-03T00:36:16;98337.53;;;20.70;66.28
63881;BME280;50046;46.672;11.152;2022-08-03T00:36:27;98326.91;;;20.69;66.56
63881;BME280;50046;46.672;11.152;2022-08-03T00:36:38;98327.22;;;20.67;66.28
63881;BME280;50046;46.672;11.152;2022-08-03T00:36:48;98329.16;;;20.67;66.52
63881;BME280;50046;46.672;11.152;2022-08-03T00:36:58;98325.91;;;20.65;66.40
63881;BME280;50046;46.672;11.152;2022-08-03T00:37:09;98337.38;;;20.67;66.35
63881;BME280;50046;46.672;11.152;2022-08-03T00:37:21;98334.00;;;20.70;66.12
63881;BME280;50046;46.672;11.152;2022-08-03T00:37:32;98334.78;;;20.70;66.06
63881;BME280;50046;46.672;11.152;2022-08-03T00:37:42;98331.56;;;20.68;66.24
63881;BME280;50046;46.672;11.152;2022-08-03T00:37:53;98329.94;;;20.67;65.94
63881;BME280;50046;46.672;11.152;2022-08-03T00:38:04;98333.50;;;20.68;66.38
63881;BME280;50046;46.672;11.152;2022-08-03T00:38:14;98332.38;;;20.69;66.24
63881;BME280;50046;46.672;11.152;2022-08-03T00:38:24;98327.69;;;20.69;66.09
63881;BME280;50046;46.672;11.152;2022-08-03T00:38:35;98327.69;;;20.69;66.03
63881;BME280;50046;46.672;11.152;2022-08-03T00:38:45;98330.09;;;20.71;65.92
63881;BME280;50046;46.672;11.152;2022-08-03T00:38:56;98327.84;;;20.73;65.67
63881;BME280;50046;46.672;11.152;2022-08-03T00:39:06;98332.84;;;20.71;65.79
63881;BME280;50046;46.672;11.152;2022-08-03T00:39:17;98325.28;;;20.68;65.97
63881;BME280;50046;46.672;11.152;2022-08-03T00:39:27;98330.44;;;20.69;65.95
63881;BME280;50046;46.672;11.152;2022-08-03T00:39:38;98326.06;;;20.68;66.25
63881;BME280;50046;46.672;11.152;2022-08-03T00:39:48;98330.25;;;20.66;66.17
63881;BME280;50046;46.672;11.152;2022-08-03T00:39:58;98330.25;;;20.66;66.54
63881;BME280;50046;46.672;11.152;2022-08-03T00:40:11;98330.25;;;20.66;66.59
63881;BME280;50046;46.672;11.152;2022-08-03T00:40:22;98328.00;;;20.68;66.17
63881;BME280;50046;46.672;11.152;2022-08-03T00:40:33;98331.91;;;20.67;66.69
63881;BME280;50046;46.672;11.152;2022-08-03T00:40:43;98333.50;;;20.68;66.41
63881;BME280;50046;46.672;11.152;2022-08-03T00:40:54;98331.56;;;20.68;66.15
63881;BME280;50046;46.672;11.152;2022-08-03T00:41:05;98334.78;;;20.70;66.34
63881;BME280;50046;46.672;11.152;2022-08-03T00:41:16;98331.72;;;20.72;66.25
63881;BME280;50046;46.672;11.152;2022-08-03T00:41:26;98330.94;;;20.71;66.26
63881;BME280;50046;46.672;11.152;2022-08-03T00:41:39;98329.94;;;20.76;66.17
63881;BME280;50046;46.672;11.152;2022-08-03T00:41:50;98329.94;;;20.76;66.00
63881;BME280;50046;46.672;11.152;2022-08-03T00:42:04;98329.94;;;20.76;65.66
63881;BME280;50046;46.672;11.152;2022-08-03T00:42:14;98335.44;;;20.76;65.67
63881;BME280;50046;46.672;11.152;2022-08-03T00:42:25;98328.34;;;20.75;65.82
63881;BME280;50046;46.672;11.152;2022-08-03T00:42:45;98334.31;;;20.77;65.76
63881;BME280;50046;46.672;11.152;2022-08-03T00:43:01;98332.69;;;20.76;65.92
63881;BME280;50046;46.672;11.152;2022-08-03T00:43:12;98332.69;;;20.76;65.71
63881;BME280;50046;46.672;11.152;2022-08-03T00:43:24;98335.44;;;20.76;65.59
63881;BME280;50046;46.672;11.152;2022-08-03T00:43:36;98331.09;;;20.75;65.60
63881;BME280;50046;46.672;11.152;2022-08-03T00:43:46;98331.09;;;20.75;65.97
63881;BME280;50046;46.672;11.152;2022-08-03T00:43:57;98336.56;;;20.75;65.66
63881;BME280;50046;46.672;11.152;2022-08-03T00:44:07;98332.22;;;20.74;65.62
63881;BME280;50046;46.672;11.152;2022-08-03T00:44:17;98334.47;;;20.72;65.73
63881;BME280;50046;46.672;11.152;2022-08-03T00:44:28;98328.50;;;20.70;65.91
63881;BME280;50046;46.672;11.152;2022-08-03T00:44:40;98335.13;;;20.69;66.21
63881;BME280;50046;46.672;11.152;2022-08-03T00:44:50;98334.00;;;20.70;66.20
63881;BME280;50046;46.672;11.152;2022-08-03T00:45:00;98332.38;;;20.69;66.24
63881;BME280;50046;46.672;11.152;2022-08-03T00:45:11;98337.03;;;20.68;66.03
63881;BME280;50046;46.672;11.152;2022-08-03T00:45:24;98336.25;;;20.68;66.22
63881;BME280;50046;46.672;11.152;2022-08-03T00:45:37;98338.19;;;20.67;66.41
63881;BME280;50046;46.672;11.152;2022-08-03T00:45:48;98342.06;;;20.66;66.52
63881;BME280;50046;46.672;11.152;2022-08-03T00:45:58;98332.22;;;20.65;66.34
63881;BME280;50046;46.672;11.152;2022-08-03T00:46:09;98331.41;;;20.65;66.52
63881;BME280;50046;46.672;11.152;2022-08-03T00:46:19;98330.25;;;20.66;66.82
63881;BME280;50046;46.672;11.152;2022-08-03T00:46:31;98330.75;;;20.68;66.41
63881;BME280;50046;46.672;11.152;2022-08-03T00:46:41;98329.16;;;20.67;66.29
63881;BME280;50046;46.672;11.152;2022-08-03T00:46:52;98338.50;;;20.66;66.49
63881;BME280;50046;46.672;11.152;2022-08-03T00:47:02;98334.16;;;20.65;66.50
63881;BME280;50046;46.672;11.152;2022-08-03T00:47:13;98335.28;;;20.63;66.22
63881;BME280;50046;46.672;11.152;2022-08-03T00:47:23;98333.34;;;20.64;66.34
63881;BME280;50046;46.672;11.152;2022-08-03T00:47:33;98336.09;;;20.64;66.60
63881;BME280;50046;46.672;11.152;2022-08-03T00:47:44;98338.84;;;20.64;66.26
63881;BME280;50046;46.672;11.152;2022-08-03T00:47:55;98335.75;;;20.66;66.47
63881;BME280;50046;46.672;11.152;2022-08-03T00:48:08;98333.84;;;20.66;66.33
63881;BME280;50046;46.672;11.152;2022-08-03T00:48:18;98331.91;;;20.67;66.59
63881;BME280;50046;46.672;11.152;2022-08-03T00:48:28;98332.22;;;20.65;66.59
63881;BME280;50046;46.672;11.152;2022-08-03T00:48:39;98339.63;;;20.65;66.44
63881;BME280;50046;46.672;11.152;2022-08-03T00:48:50;98333.00;;;20.66;66.36
63881;BME280;50046;46.672;11.152;2022-08-03T00:49:01;98330.59;;;20.64;66.36
63881;BME280;50046;46.672;11.152;2022-08-03T00:49:11;98333.34;;;20.64;66.44
63881;BME280;50046;46.672;11.152;2022-08-03T00:49:22;98336.09;;;20.64;66.32
63881;BME280;50046;46.672;11.152;2022-08-03T00:49:32;98330.91;;;20.62;66.71
63881;BME280;50046;46.672;11.152;2022-08-03T00:49:43;98337.19;;;20.63;65.93
63881;BME280;50046;46.672;11.152;2022-08-03T00:49:53;98330.09;;;20.62;66.09
63881;BME280;50046;46.672;11.152;2022-08-03T00:50:04;98332.84;;;20.62;65.63
63881;BME280;50046;46.672;11.152;2022-08-03T00:50:16;98326.56;;;20.61;65.56
63881;BME280;50046;46.672;11.152;2022-08-03T00:50:29;98331.25;;;20.61;65.46
63881;BME280;50046;46.672;11.152;2022-08-03T00:50:41;98325.44;;;20.62;65.62
63881;BME280;50046;46.672;11.152;2022-08-03T00:50:52;98331.72;;;20.63;65.32
63881;BME280;50046;46.672;11.152;2022-08-03T00:51:03;98331.72;;;20.63;65.17
63881;BME280;50046;46.672;11.152;2022-08-03T00:51:14;98330.09;;;20.62;65.10
63881;BME280;50046;46.672;11.152;2022-08-03T00:51:24;98324.63;;;20.62;65.08
63881;BME280;50046;46.672;11.152;2022-08-03T00:51:35;98321.88;;;20.62;65.20
63881;BME280;50046;46.672;11.152;2022-08-03T00:51:45;98331.72;;;20.63;65.30
63881;BME280;50046;46.672;11.152;2022-08-03T00:51:56;98331.25;;;20.61;65.37
63881;BME280;50046;46.672;11.152;2022-08-03T00:52:13;98327.38;;;20.62;65.54
63881;BME280;50046;46.672;11.152;2022-08-03T00:52:24;98333.66;;;20.62;65.31
63881;BME280;50046;46.672;11.152;2022-08-03T00:52:35;98326.22;;;20.63;65.73
63881;BME280;50046;46.672;11.152;2022-08-03T00:52:46;98334.16;;;20.65;65.29
63881;BME280;50046;46.672;11.152;2022-08-03T00:52:58;98329.81;;;20.63;65.48
63881;BME280;50046;46.672;11.152;2022-08-03T00:53:10;98330.59;;;20.64;65.25
63881;BME280;50046;46.672;11.152;2022-08-03T00:53:23;98334.63;;;20.67;65.35
63881;BME280;50046;46.672;11.152;2022-08-03T00:53:35;98327.22;;;20.67;65.38
63881;BME280;50046;46.672;11.152;2022-08-03T00:53:46;98330.75;;;20.68;65.17
63881;BME280;50046;46.672;11.152;2022-08-03T00:53:57;98328.00;;;20.68;65.20
63881;BME280;50046;46.672;11.152;2022-08-03T00:54:07;98326.06;;;20.68;65.34
63881;BME280;50046;46.672;11.152;2022-08-03T00:54:19;98332.38;;;20.69;65.44
63881;BME280;50046;46.672;11.152;2022-08-03T00:54:29;98329.66;;;20.69;65.68
63881;BME280;50046;46.672;11.152;2022-08-03T00:54:40;98331.56;;;20.68;65.49
63881;BME280;50046;46.672;11.152;2022-08-03T00:54:50;98328.00;;;20.68;65.46
63881;BME280;50046;46.672;11.152;2022-08-03T00:55:02;98325.28;;;20.68;65.55
63881;BME280;50046;46.672;11.152;2022-08-03T00:55:13;98331.09;;;20.66;65.81
63881;BME280;50046;46.672;11.152;2022-08-03T00:55:24;98328.16;;;20.62;65.72
63881;BME280;50046;46.672;11.152;2022-08-03T00:55:35;98325.75;;;20.61;65.95
63881;BME280;50046;46.672;11.152;2022-08-03T00:55:46;98329.63;;;20.60;65.93
63881;BME280;50046;46.672;11.152;2022-08-03T00:55:57;98322.84;;;20.57;65.92
63881;BME280;50046;46.672;11.152;2022-08-03T00:56:07;98327.22;;;20.58;65.78
63881;BME280;50046;46.672;11.152;2022-08-03T00:56:18;98328.03;;;20.59;65.75
63881;BME280;50046;46.672;11.152;2022-08-03T00:56:28;98332.69;;;20.58;66.03
63881;BME280;50046;46.672;11.152;2022-08-03T00:56:39;98329.13;;;20.58;66.22
63881;BME280;50046;46.672;11.152;2022-08-03T00:56:50;98332.22;;;20.56;66.07